createdAt,value
2022-07-25T00:08:32.701Z,99.99
2022-07-25T00:09:31.778Z,99.99
2022-07-25T00:10:31.923Z,99.99
2022-07-25T00:11:31.725Z,99.99
2022-07-25T00:12:31.722Z,99.99
2022-07-25T00:13:31.737Z,99.99
2022-07-25T00:14:32.743Z,99.99
2022-07-25T00:15:31.794Z,99.99
2022-07-25T00:16:31.704Z,99.99
2022-07-25T00:17:31.661Z,99.99
2022-07-25T00:18:31.752Z,99.99
2022-07-25T00:19:31.801Z,99.99
2022-07-25T00:20:31.633Z,99.99
2022-07-25T00:21:31.621Z,99.99
2022-07-25T00:22:31.585Z,99.99
2022-07-25T00:23:31.637Z,99.99
2022-07-25T00:24:31.545Z,99.99
2022-07-25T00:25:31.554Z,99.99
2022-07-25T00:26:34.418Z,99.99
2022-07-25T00:27:31.524Z,99.99
2022-07-25T00:28:32.582Z,99.99
2022-07-25T00:29:31.484Z,99.99
2022-07-25T00:30:31.531Z,99.99
2022-07-25T00:31:31.520Z,99.99
2022-07-25T00:32:31.463Z,99.99
2022-07-25T00:33:31.436Z,99.99
2022-07-25T00:34:31.411Z,99.99
2022-07-25T00:35:31.398Z,99.99
2022-07-25T00:36:31.397Z,99.99
2022-07-25T00:37:31.393Z,99.99
2022-07-25T00:38:32.527Z,99.99
2022-07-25T00:39:31.345Z,99.99
2022-07-25T00:40:31.366Z,99.99
2022-07-25T00:41:31.343Z,99.99
2022-07-25T00:42:31.313Z,99.99
2022-07-25T00:43:31.322Z,99.99
2022-07-25T00:44:31.513Z,99.99
2022-07-25T00:45:31.329Z,99.99
2022-07-25T00:46:31.375Z,99.99
2022-07-25T00:47:31.240Z,99.99
2022-07-25T00:48:31.329Z,99.99
2022-07-25T00:49:31.219Z,99.99
2022-07-25T00:50:31.196Z,99.99
2022-07-25T00:51:31.202Z,99.99
2022-07-25T00:52:31.204Z,99.99
2022-07-25T00:53:31.196Z,99.99
2022-07-25T00:54:31.170Z,99.99
2022-07-25T00:55:31.260Z,99.99
2022-07-25T00:56:31.137Z,99.99
2022-07-25T00:57:32.158Z,99.99
2022-07-25T00:58:31.103Z,99.99
2022-07-25T00:59:31.087Z,99.99
2022-07-25T01:00:32.227Z,99.99
2022-07-25T01:01:31.127Z,99.99
2022-07-25T01:02:31.099Z,99.99
2022-07-25T01:03:31.030Z,99.99
2022-07-25T01:04:31.232Z,99.99
2022-07-25T01:05:31.070Z,99.99
2022-07-25T01:06:31.058Z,99.99
2022-07-25T01:07:31.017Z,99.99
2022-07-25T01:08:30.987Z,99.99
2022-07-25T01:09:30.963Z,99.99
2022-07-25T01:10:30.940Z,99.99
2022-07-25T01:11:30.922Z,99.99
2022-07-25T01:12:30.948Z,99.99
2022-07-25T01:13:30.929Z,99.99
2022-07-25T01:14:30.871Z,99.99
2022-07-25T01:15:30.898Z,99.99
2022-07-25T01:16:30.980Z,99.99
2022-07-25T01:17:30.852Z,99.99
2022-07-25T01:18:30.845Z,99.99
2022-07-25T01:19:30.916Z,99.99
2022-07-25T01:20:30.826Z,99.99
2022-07-25T01:21:30.791Z,99.99
2022-07-25T01:22:30.937Z,99.99
2022-07-25T01:23:30.746Z,99.99
2022-07-25T01:24:30.742Z,99.99
2022-07-25T01:25:30.727Z,99.99
2022-07-25T01:26:30.721Z,99.99
2022-07-25T01:27:30.690Z,99.99
2022-07-25T01:28:30.682Z,99.99
2022-07-25T01:29:30.670Z,99.99
2022-07-25T01:30:30.654Z,99.99
2022-07-25T01:31:30.725Z,99.99
2022-07-25T01:32:30.642Z,99.99
2022-07-25T01:33:31.872Z,99.99
2022-07-25T01:34:30.614Z,99.99
2022-07-25T01:35:30.577Z,99.99
2022-07-25T01:36:31.703Z,99.99
2022-07-25T01:37:30.642Z,99.99
2022-07-25T01:38:30.568Z,99.99
2022-07-25T01:39:30.523Z,99.99
2022-07-25T01:40:31.575Z,99.99
2022-07-25T01:41:30.698Z,99.99
2022-07-25T01:42:30.571Z,99.99
2022-07-25T01:43:30.493Z,99.99
2022-07-25T01:44:30.487Z,99.99
2022-07-25T01:45:30.455Z,99.99
2022-07-25T01:46:31.669Z,99.99
2022-07-25T01:47:30.446Z,99.99
2022-07-25T01:48:30.442Z,99.99
2022-07-25T01:49:30.419Z,99.99
2022-07-25T01:50:30.398Z,99.99
2022-07-25T01:51:30.386Z,99.99
2022-07-25T01:52:30.407Z,99.99
2022-07-25T01:53:30.344Z,99.99
2022-07-25T01:54:30.368Z,99.99
2022-07-25T01:55:30.310Z,99.99
2022-07-25T01:56:31.752Z,99.99
2022-07-25T01:57:31.432Z,99.99
2022-07-25T01:58:32.098Z,99.99
2022-07-25T01:59:30.268Z,99.99
2022-07-25T02:00:30.265Z,99.99
2022-07-25T02:01:30.387Z,99.99
2022-07-25T02:02:30.237Z,99.99
2022-07-25T02:03:30.215Z,99.99
2022-07-25T02:04:30.261Z,99.99
2022-07-25T02:05:30.206Z,99.99
2022-07-25T02:06:30.168Z,99.99
2022-07-25T02:07:30.236Z,99.99
2022-07-25T02:08:30.294Z,99.99
2022-07-25T02:09:30.142Z,99.99
2022-07-25T02:10:30.187Z,99.99
2022-07-25T02:11:30.106Z,99.99
2022-07-25T02:12:30.124Z,99.99
2022-07-25T02:13:30.168Z,99.99
2022-07-25T02:14:30.706Z,99.99
2022-07-25T02:15:30.089Z,99.99
2022-07-25T02:16:30.144Z,99.99
2022-07-25T02:17:30.133Z,99.99
2022-07-25T02:18:32.181Z,99.99
2022-07-25T02:19:30.123Z,99.99
2022-07-25T02:20:30.021Z,99.99
2022-07-25T02:21:29.964Z,99.99
2022-07-25T02:22:31.003Z,99.99
2022-07-25T02:23:29.977Z,99.99
2022-07-25T02:24:31.048Z,99.99
2022-07-25T02:25:29.950Z,99.99
2022-07-25T02:26:29.970Z,99.99
2022-07-25T02:27:29.918Z,99.99
2022-07-25T02:28:29.998Z,99.99
2022-07-25T02:29:31.027Z,99.99
2022-07-25T02:30:29.885Z,99.99
2022-07-25T02:31:29.932Z,99.99
2022-07-25T02:32:30.874Z,99.99
2022-07-25T02:33:29.904Z,99.99
2022-07-25T02:34:29.839Z,99.99
2022-07-25T02:35:29.858Z,99.99
2022-07-25T02:36:29.830Z,99.99
2022-07-25T02:37:29.808Z,99.99
2022-07-25T02:38:29.738Z,99.99
2022-07-25T02:39:29.730Z,0.00
2022-07-25T02:40:29.718Z,0.00
2022-07-25T02:41:29.719Z,0.00
2022-07-25T02:42:29.691Z,0.00
2022-07-25T02:43:29.709Z,0.00
2022-07-25T02:44:30.894Z,0.00
2022-07-25T02:45:29.656Z,0.00
2022-07-25T02:46:29.722Z,0.00
2022-07-25T02:47:29.639Z,0.00
2022-07-25T02:48:31.898Z,0.00
2022-07-25T02:49:29.750Z,0.00
2022-07-25T02:50:50.574Z,0.00
2022-07-25T02:51:29.734Z,0.00
2022-07-25T02:52:29.568Z,0.00
2022-07-25T02:53:54.863Z,0.00
2022-07-25T02:54:29.567Z,0.00
2022-07-25T02:55:29.504Z,0.00
2022-07-25T02:56:30.344Z,0.00
2022-07-25T02:57:29.618Z,0.00
2022-07-25T02:58:29.460Z,0.00
2022-07-25T02:59:32.272Z,0.00
2022-07-25T03:00:29.441Z,0.00
2022-07-25T03:01:29.511Z,0.00
2022-07-25T03:02:29.744Z,0.00
2022-07-25T03:03:29.421Z,0.00
2022-07-25T03:04:51.421Z,0.00
2022-07-25T03:05:30.448Z,0.00
2022-07-25T03:59:35.961Z,99.99
2022-07-25T04:00:51.992Z,99.99
2022-07-25T04:04:11.612Z,99.99
2022-07-25T04:05:10.935Z,99.99
2022-07-25T04:06:10.921Z,99.99
2022-07-25T04:07:10.922Z,99.99
2022-07-25T04:08:39.755Z,99.99
2022-07-25T04:09:10.906Z,99.99
2022-07-25T04:21:36.889Z,99.99
2022-07-25T04:22:58.891Z,99.99
2022-07-25T04:23:37.865Z,99.99
2022-07-25T04:26:35.742Z,99.99
2022-07-25T04:27:35.634Z,99.99
2022-07-25T04:28:35.591Z,99.99
2022-07-25T04:29:35.592Z,99.99
2022-07-25T04:30:35.566Z,99.99
2022-07-25T04:31:35.634Z,99.99
2022-07-25T04:32:56.555Z,99.99
2022-07-25T04:33:35.610Z,99.99
2022-07-25T04:34:36.674Z,99.99
2022-07-25T04:35:35.501Z,99.99
2022-07-25T04:57:21.727Z,99.99
2022-07-25T04:58:22.692Z,99.99
2022-07-25T04:59:22.709Z,99.99
2022-07-25T05:00:22.668Z,99.99
2022-07-25T05:01:22.690Z,99.99
2022-07-25T05:02:22.713Z,99.99
2022-07-25T05:03:22.638Z,99.99
2022-07-25T05:04:22.649Z,99.99
2022-07-25T05:05:24.386Z,99.99
2022-07-25T05:06:22.611Z,99.99
2022-07-25T05:07:22.569Z,99.99
2022-07-25T05:08:22.561Z,99.99
2022-07-25T05:09:22.628Z,99.99
2022-07-25T05:10:22.530Z,99.99
2022-07-25T05:11:22.573Z,99.99
2022-07-25T05:12:22.530Z,99.99
2022-07-25T05:13:22.502Z,99.99
2022-07-25T05:14:25.595Z,99.99
2022-07-25T05:15:23.563Z,99.99
2022-07-25T05:16:22.734Z,99.99
2022-07-25T05:17:22.450Z,99.99
2022-07-25T05:18:22.435Z,99.99
2022-07-25T05:19:23.636Z,99.99
2022-07-25T05:20:25.460Z,99.99
2022-07-25T05:21:22.420Z,99.99
2022-07-25T05:46:14.904Z,99.99
2022-07-25T05:47:09.026Z,99.99
2022-07-25T06:07:05.844Z,99.99
2022-07-25T06:08:03.946Z,99.99
2022-07-25T06:09:03.878Z,99.85
2022-07-25T06:10:03.842Z,99.16
2022-07-25T06:11:02.915Z,99.16
2022-07-25T06:12:03.841Z,97.96
2022-07-25T06:13:03.806Z,98.02
2022-07-25T06:14:04.195Z,97.91
2022-07-25T06:37:49.931Z,93.50
2022-07-25T06:38:28.185Z,93.90
2022-07-25T06:39:29.281Z,93.79
2022-07-25T06:40:49.293Z,93.20
2022-07-25T06:41:29.294Z,92.56
2022-07-25T06:42:28.172Z,92.76
2022-07-25T06:43:28.193Z,92.85
2022-07-25T06:44:28.132Z,92.91
2022-07-25T06:45:28.452Z,92.02
2022-07-25T06:46:28.227Z,91.22
2022-07-25T06:47:29.811Z,91.38
2022-07-25T06:48:28.094Z,90.38
2022-07-25T06:49:28.108Z,90.68
2022-07-25T06:50:28.023Z,90.48
2022-07-25T06:51:28.141Z,89.84
2022-07-25T06:52:28.014Z,89.94
2022-07-25T06:53:28.027Z,89.40
2022-07-25T06:54:28.047Z,89.20
2022-07-25T06:55:28.017Z,89.01
2022-07-25T06:56:30.020Z,89.06
2022-07-25T06:57:27.955Z,89.26
2022-07-25T06:58:28.902Z,88.96
2022-07-25T07:00:02.682Z,87.73
2022-07-25T07:01:03.680Z,88.32
2022-07-25T07:02:03.655Z,88.03
2022-07-25T07:03:03.714Z,88.13
2022-07-25T07:04:05.125Z,87.99
2022-07-25T07:05:24.668Z,87.99
2022-07-25T07:06:03.554Z,87.79
2022-07-25T07:07:03.511Z,87.49
2022-07-25T07:08:03.592Z,87.79
2022-07-25T07:09:03.517Z,87.65
2022-07-25T07:10:03.527Z,86.66
2022-07-25T07:11:03.496Z,87.05
2022-07-25T07:12:03.470Z,86.56
2022-07-25T07:15:52.482Z,86.81
2022-07-25T07:16:53.419Z,86.71
2022-07-25T07:17:53.413Z,86.71
2022-07-25T07:19:14.411Z,86.57
2022-07-25T07:20:14.411Z,85.88
2022-07-25T07:20:53.588Z,85.28
2022-07-25T07:21:53.386Z,84.50
2022-07-25T07:22:53.339Z,84.16
2022-07-25T07:23:53.888Z,84.36
2022-07-25T07:24:55.398Z,83.37
2022-07-25T07:26:19.665Z,83.66
2022-07-25T07:28:07.009Z,83.96
2022-07-25T07:30:27.867Z,83.62
2022-07-25T07:31:24.854Z,83.53
2022-07-25T07:32:26.898Z,84.31
2022-07-25T07:33:47.987Z,83.72
2022-07-25T07:34:24.769Z,83.72
2022-07-25T07:35:24.843Z,84.71
2022-07-25T07:36:26.766Z,83.42
2022-07-25T07:38:56.960Z,82.59
2022-07-25T07:39:38.672Z,82.10
2022-07-25T07:40:38.655Z,82.30
2022-07-25T07:41:38.660Z,82.50
2022-07-25T07:42:38.692Z,82.65
2022-07-25T07:43:38.813Z,82.95
2022-07-25T07:44:38.859Z,83.05
2022-07-25T07:45:38.701Z,83.05
2022-07-25T07:46:38.692Z,83.31
2022-07-25T07:47:40.713Z,82.61
2022-07-25T07:48:38.726Z,82.02
2022-07-25T07:49:38.609Z,82.22
2022-07-25T07:50:38.616Z,81.43
2022-07-25T07:51:38.524Z,81.76
2022-07-25T07:52:38.584Z,81.67
2022-07-25T07:53:38.622Z,82.26
2022-07-25T07:54:38.467Z,81.67
2022-07-25T07:55:38.454Z,81.37
2022-07-25T07:56:38.442Z,81.63
2022-07-25T07:57:38.447Z,81.73
2022-07-25T07:58:38.407Z,82.12
2022-07-25T07:59:38.391Z,81.43
2022-07-25T08:00:38.392Z,80.74
2022-07-25T08:03:07.166Z,81.49
2022-07-25T08:03:55.844Z,80.46
2022-07-25T08:04:52.755Z,79.87
2022-07-25T08:05:52.736Z,79.74
2022-07-25T08:06:52.732Z,80.82
2022-07-25T08:07:52.712Z,80.03
2022-07-25T08:09:13.770Z,79.63
2022-07-25T08:09:53.913Z,78.65
2022-07-25T08:10:56.930Z,78.55
2022-07-25T08:11:52.771Z,78.94
2022-07-25T08:12:52.648Z,79.63
2022-07-25T08:13:52.758Z,79.24
2022-07-25T08:14:52.777Z,78.85
2022-07-25T08:15:51.731Z,78.85
2022-07-25T08:16:52.659Z,78.65
2022-07-25T08:17:54.609Z,78.85
2022-07-25T08:18:52.565Z,78.75
2022-07-25T08:19:52.755Z,79.24
2022-07-25T08:20:52.607Z,79.63
2022-07-25T08:21:52.534Z,80.09
2022-07-25T08:22:56.321Z,79.79
2022-07-25T08:23:52.735Z,80.19
2022-07-25T08:24:52.544Z,79.66
2022-07-25T08:25:52.472Z,78.97
2022-07-25T08:26:52.574Z,78.77
2022-07-25T08:27:52.464Z,77.39
2022-07-25T08:29:17.151Z,77.69
2022-07-25T08:29:52.590Z,76.74
2022-07-25T08:30:52.510Z,77.14
2022-07-25T08:31:52.486Z,77.72
2022-07-25T08:32:52.391Z,77.83
2022-07-25T08:33:52.374Z,78.41
2022-07-25T08:34:52.345Z,78.31
2022-07-25T08:35:53.441Z,78.52
2022-07-25T08:36:52.350Z,78.12
2022-07-25T08:37:52.317Z,78.08
2022-07-25T08:38:52.296Z,77.78
2022-07-25T08:39:52.363Z,77.00
2022-07-25T08:40:54.244Z,77.00
2022-07-25T08:41:52.351Z,78.28
2022-07-25T08:42:52.312Z,76.41
2022-07-25T08:43:52.509Z,76.34
2022-07-25T08:44:52.973Z,77.49
2022-07-25T08:45:52.179Z,76.54
2022-07-25T08:46:52.236Z,77.14
2022-07-25T08:47:52.199Z,77.23
2022-07-25T08:48:52.221Z,77.53
2022-07-25T08:49:52.154Z,77.53
2022-07-25T08:50:52.133Z,77.23
2022-07-25T08:51:52.104Z,76.80
2022-07-25T08:53:00.927Z,76.34
2022-07-25T08:53:52.135Z,76.61
2022-07-25T08:54:52.150Z,76.41
2022-07-25T08:55:52.057Z,76.41
2022-07-25T08:56:52.056Z,76.51
2022-07-25T08:57:52.183Z,76.51
2022-07-25T08:58:52.014Z,76.64
2022-07-25T08:59:53.204Z,77.14
2022-07-25T09:00:52.016Z,77.43
2022-07-25T09:01:52.023Z,76.74
2022-07-25T09:02:53.051Z,76.74
2022-07-25T09:03:53.533Z,76.45
2022-07-25T09:04:51.942Z,76.74
2022-07-25T09:05:52.978Z,77.14
2022-07-25T09:06:51.021Z,76.78
2022-07-25T09:07:52.962Z,77.66
2022-07-25T09:08:51.913Z,78.06
2022-07-25T09:09:51.915Z,77.08
2022-07-25T09:10:51.871Z,77.47
2022-07-25T09:11:51.845Z,77.70
2022-07-25T09:12:51.858Z,78.16
2022-07-25T09:13:51.851Z,78.16
2022-07-25T09:14:51.801Z,78.06
2022-07-25T09:15:52.932Z,78.22
2022-07-25T09:16:52.274Z,78.31
2022-07-25T09:17:51.789Z,76.45
2022-07-25T09:18:51.784Z,76.45
2022-07-25T09:19:51.744Z,77.43
2022-07-25T09:20:51.712Z,77.33
2022-07-25T09:21:51.714Z,77.62
2022-07-25T09:22:51.715Z,77.59
2022-07-25T09:23:51.721Z,77.89
2022-07-25T09:24:51.702Z,77.00
2022-07-25T09:25:51.643Z,77.26
2022-07-25T09:26:51.634Z,76.86
2022-07-25T09:27:51.794Z,76.53
2022-07-25T09:28:51.677Z,76.92
2022-07-25T09:29:51.592Z,75.15
2022-07-25T09:30:51.732Z,75.21
2022-07-25T09:31:51.568Z,74.82
2022-07-25T09:32:51.564Z,75.02
2022-07-25T09:33:51.544Z,74.43
2022-07-25T09:34:51.570Z,74.23
2022-07-25T09:35:51.556Z,75.18
2022-07-25T09:36:51.508Z,74.79
2022-07-25T09:37:52.529Z,74.69
2022-07-25T09:38:51.502Z,74.29
2022-07-25T09:39:51.485Z,75.48
2022-07-25T09:40:51.480Z,75.27
2022-07-25T09:41:51.435Z,74.69
2022-07-25T09:42:51.456Z,74.23
2022-07-25T09:43:51.510Z,74.73
2022-07-25T09:44:51.534Z,75.12
2022-07-25T09:45:51.648Z,74.63
2022-07-25T09:46:51.528Z,75.21
2022-07-25T09:47:52.601Z,74.66
2022-07-25T09:48:51.465Z,75.05
2022-07-25T09:49:51.348Z,75.02
2022-07-25T09:50:52.616Z,74.13
2022-07-25T09:51:51.354Z,74.56
2022-07-25T09:52:51.305Z,75.31
2022-07-25T09:53:51.287Z,75.02
2022-07-25T09:54:52.394Z,74.82
2022-07-25T09:55:51.387Z,74.13
2022-07-25T09:56:51.442Z,74.88
2022-07-25T09:57:51.242Z,73.35
2022-07-25T09:58:51.251Z,75.12
2022-07-25T09:59:51.216Z,75.37
2022-07-25T10:00:51.195Z,74.69
2022-07-25T10:01:51.412Z,74.59
2022-07-25T10:02:53.268Z,73.31
2022-07-25T10:03:55.835Z,74.85
2022-07-25T10:04:51.906Z,74.65
2022-07-25T10:05:51.225Z,73.27
2022-07-25T10:06:51.247Z,73.73
2022-07-25T10:07:52.120Z,73.24
2022-07-25T10:08:51.117Z,73.60
2022-07-25T10:09:51.081Z,72.71
2022-07-25T10:10:51.060Z,72.42
2022-07-25T10:11:53.376Z,72.38
2022-07-25T10:13:13.768Z,71.60
2022-07-25T10:13:51.024Z,73.96
2022-07-25T10:14:57.430Z,73.07
2022-07-25T10:15:52.235Z,72.19
2022-07-25T10:16:51.018Z,72.28
2022-07-25T10:17:51.024Z,72.48
2022-07-25T10:18:50.966Z,72.78
2022-07-25T10:19:58.352Z,72.55
2022-07-25T10:20:50.947Z,73.13
2022-07-25T10:21:51.006Z,72.25
2022-07-25T10:22:58.562Z,72.45
2022-07-25T10:23:50.923Z,71.56
2022-07-25T10:24:50.899Z,72.61
2022-07-25T10:25:51.036Z,71.92
2022-07-25T10:26:51.058Z,71.14
2022-07-25T10:27:50.931Z,70.94
2022-07-25T10:28:50.821Z,71.43
2022-07-25T10:29:50.836Z,72.12
2022-07-25T10:30:50.849Z,71.73
2022-07-25T10:31:51.964Z,72.90
2022-07-25T10:32:50.776Z,71.79
2022-07-25T10:33:50.836Z,70.65
2022-07-25T10:34:50.752Z,70.55
2022-07-25T10:35:51.829Z,71.27
2022-07-25T10:37:11.715Z,71.27
2022-07-25T10:37:51.779Z,71.86
2022-07-25T10:39:12.750Z,71.41
2022-07-25T10:39:52.809Z,72.28
2022-07-25T10:40:50.705Z,72.22
2022-07-25T10:41:50.694Z,72.42
2022-07-25T10:42:51.703Z,72.71
2022-07-25T10:43:54.422Z,72.61
2022-07-25T10:44:59.731Z,73.11
2022-07-25T10:45:50.742Z,72.22
2022-07-25T10:46:50.659Z,72.81
2022-07-25T10:47:50.564Z,72.32
2022-07-25T10:48:50.737Z,72.52
2022-07-25T10:50:13.914Z,72.91
2022-07-25T10:50:55.823Z,73.34
2022-07-25T10:51:52.841Z,73.63
2022-07-25T10:52:50.601Z,73.54
2022-07-25T10:53:50.529Z,73.73
2022-07-25T10:54:50.487Z,73.93
2022-07-25T10:56:05.091Z,74.19
2022-07-25T10:56:50.477Z,73.99
2022-07-25T10:58:16.160Z,73.34
2022-07-25T10:58:50.501Z,74.12
2022-07-25T10:59:50.414Z,74.65
2022-07-25T11:00:50.466Z,75.04
2022-07-25T11:01:50.494Z,75.24
2022-07-25T11:02:50.490Z,74.85
2022-07-25T11:03:50.402Z,76.03
2022-07-25T11:04:50.388Z,75.14
2022-07-25T11:05:50.448Z,74.95
2022-07-25T11:07:11.402Z,74.46
2022-07-25T11:08:18.869Z,74.85
2022-07-25T11:08:50.314Z,74.85
2022-07-25T11:09:50.301Z,73.96
2022-07-25T11:10:50.278Z,74.55
2022-07-25T11:11:52.585Z,75.48
2022-07-25T11:12:52.987Z,74.75
2022-07-25T11:13:50.302Z,74.65
2022-07-25T11:14:50.256Z,73.83
2022-07-25T11:15:50.201Z,73.73
2022-07-25T11:16:50.256Z,73.14
2022-07-25T11:17:50.402Z,73.24
2022-07-25T11:18:52.233Z,72.75
2022-07-25T11:19:50.174Z,74.91
2022-07-25T11:20:50.171Z,73.24
2022-07-25T11:21:50.214Z,74.08
2022-07-25T11:22:50.111Z,73.30
2022-07-25T11:23:50.125Z,74.38
2022-07-25T11:24:50.197Z,74.44
2022-07-25T11:25:50.112Z,71.95
2022-07-25T11:26:50.060Z,71.66
2022-07-25T11:27:50.066Z,71.62
2022-07-25T11:28:50.047Z,71.43
2022-07-25T11:29:50.045Z,70.75
2022-07-25T11:30:50.019Z,71.23
2022-07-25T11:31:51.861Z,70.65
2022-07-25T11:32:50.269Z,70.36
2022-07-25T11:33:50.006Z,71.53
2022-07-25T11:34:50.472Z,71.47
2022-07-25T11:35:52.050Z,71.53
2022-07-25T11:36:49.965Z,72.12
2022-07-25T11:37:49.954Z,71.62
2022-07-25T11:38:51.673Z,71.59
2022-07-25T11:39:49.890Z,71.04
2022-07-25T11:40:49.890Z,71.76
2022-07-25T11:41:52.669Z,72.38
2022-07-25T11:42:49.902Z,72.97
2022-07-25T11:43:51.179Z,72.58
2022-07-25T11:44:49.839Z,72.68
2022-07-25T11:45:51.035Z,72.48
2022-07-25T11:46:49.824Z,74.74
2022-07-25T11:47:49.835Z,74.15
2022-07-25T11:48:49.815Z,73.07
2022-07-25T11:49:50.810Z,73.17
2022-07-25T11:50:53.312Z,72.78
2022-07-25T11:51:49.758Z,72.84
2022-07-25T11:52:49.713Z,72.38
2022-07-25T11:53:49.807Z,73.07
2022-07-25T11:54:49.685Z,72.48
2022-07-25T11:55:49.820Z,72.58
2022-07-25T11:56:49.778Z,72.48
2022-07-25T11:57:49.701Z,71.83
2022-07-25T11:58:49.767Z,72.45
2022-07-25T11:59:48.618Z,73.93
2022-07-25T12:00:52.578Z,74.52
2022-07-25T12:01:50.965Z,74.22
2022-07-25T12:02:49.796Z,73.99
2022-07-25T12:03:49.585Z,73.89
2022-07-25T12:04:50.638Z,72.19
2022-07-25T12:05:51.759Z,71.99
2022-07-25T12:06:51.386Z,71.99
2022-07-25T12:08:10.551Z,71.41
2022-07-25T12:08:49.499Z,71.70
2022-07-25T12:09:49.502Z,70.42
2022-07-25T12:10:49.557Z,70.42
2022-07-25T12:11:49.663Z,71.70
2022-07-25T12:12:49.703Z,72.19
2022-07-25T12:13:49.506Z,71.60
2022-07-25T12:14:49.494Z,71.89
2022-07-25T12:15:57.304Z,71.31
2022-07-25T12:16:49.554Z,71.50
2022-07-25T12:17:49.381Z,71.41
2022-07-25T12:18:49.427Z,70.72
2022-07-25T12:19:51.382Z,70.91
2022-07-25T12:20:49.389Z,69.77
2022-07-25T12:21:49.341Z,70.26
2022-07-25T12:22:49.332Z,70.56
2022-07-25T12:23:49.292Z,70.65
2022-07-25T12:24:49.412Z,69.51
2022-07-25T12:25:49.377Z,69.21
2022-07-25T12:26:49.271Z,70.39
2022-07-25T12:27:49.359Z,70.20
2022-07-25T12:28:49.232Z,70.20
2022-07-25T12:29:49.233Z,69.60
2022-07-25T12:30:54.361Z,69.71
2022-07-25T12:31:49.260Z,70.78
2022-07-25T12:32:49.677Z,70.16
2022-07-25T12:33:49.193Z,69.96
2022-07-25T12:34:51.234Z,69.64
2022-07-25T12:35:49.175Z,68.85
2022-07-25T12:36:49.161Z,68.46
2022-07-25T12:37:49.143Z,69.24
2022-07-25T12:38:49.110Z,68.85
2022-07-25T12:39:49.114Z,69.05
2022-07-25T12:40:49.094Z,69.28
2022-07-25T12:41:48.243Z,68.43
2022-07-25T12:42:49.075Z,68.76
2022-07-25T12:43:49.064Z,70.03
2022-07-25T12:44:49.067Z,69.78
2022-07-25T12:45:49.129Z,69.90
2022-07-25T12:46:49.717Z,70.79
2022-07-25T12:47:49.083Z,71.02
2022-07-25T12:48:49.135Z,71.25
2022-07-25T12:49:48.964Z,72.44
2022-07-25T12:50:50.608Z,72.14
2022-07-25T12:51:48.929Z,71.51
2022-07-25T12:52:48.935Z,72.10
2022-07-25T12:53:49.971Z,72.20
2022-07-25T12:54:48.941Z,71.91
2022-07-25T12:55:49.983Z,72.10
2022-07-25T12:56:48.960Z,72.40
2022-07-25T12:57:48.868Z,72.10
2022-07-25T12:58:48.847Z,71.94
2022-07-25T12:59:48.884Z,72.79
2022-07-25T13:01:09.891Z,72.69
2022-07-25T13:01:48.927Z,72.36
2022-07-25T13:02:49.009Z,72.46
2022-07-25T13:03:51.037Z,72.03
2022-07-25T13:05:09.804Z,71.54
2022-07-25T13:05:48.908Z,71.54
2022-07-25T13:06:53.151Z,71.91
2022-07-25T13:07:49.878Z,72.53
2022-07-25T13:08:48.822Z,73.12
2022-07-25T13:09:48.695Z,73.38
2022-07-25T13:10:48.770Z,73.77
2022-07-25T13:11:53.130Z,73.91
2022-07-25T13:12:48.669Z,73.91
2022-07-25T13:13:48.703Z,74.66
2022-07-25T13:14:48.647Z,72.86
2022-07-25T13:15:48.642Z,72.27
2022-07-25T13:16:50.407Z,72.66
2022-07-25T13:17:48.626Z,72.66
2022-07-25T13:18:48.584Z,72.56
2022-07-25T13:19:48.581Z,73.58
2022-07-25T13:20:48.590Z,74.01
2022-07-25T13:21:48.582Z,74.73
2022-07-25T13:22:48.561Z,74.97
2022-07-25T13:23:50.230Z,75.66
2022-07-25T13:24:48.515Z,75.95
2022-07-25T13:25:48.534Z,77.03
2022-07-25T13:26:48.530Z,76.80
2022-07-25T13:28:10.948Z,75.42
2022-07-25T13:28:48.450Z,74.90
2022-07-25T13:29:48.486Z,76.37
2022-07-25T13:32:01.374Z,75.61
2022-07-25T13:33:23.383Z,74.59
2022-07-25T13:34:02.382Z,74.98
2022-07-25T13:35:02.247Z,73.71
2022-07-25T13:36:03.391Z,74.39
2022-07-25T13:37:02.205Z,75.08
2022-07-25T13:38:02.175Z,74.49
2022-07-25T13:40:22.436Z,74.52
2022-07-25T13:41:23.429Z,75.02
2022-07-25T13:42:24.956Z,75.94
2022-07-25T13:47:45.105Z,75.61
2022-07-25T13:48:46.160Z,75.90
2022-07-25T13:49:47.168Z,75.48
2022-07-25T13:51:59.293Z,75.04
2022-07-25T13:53:00.253Z,74.95
2022-07-25T13:54:21.265Z,74.55
2022-07-25T13:55:21.291Z,74.69
2022-07-25T13:56:01.961Z,75.14
2022-07-25T13:57:00.233Z,74.98
2022-07-25T13:58:00.203Z,75.54
2022-07-25T13:58:59.212Z,74.88
2022-07-25T14:00:01.303Z,76.10
2022-07-25T14:01:00.219Z,76.20
2022-07-25T14:02:00.258Z,77.08
2022-07-25T14:04:36.583Z,76.69
2022-07-25T14:05:20.920Z,76.53
2022-07-25T14:06:20.920Z,76.92
2022-07-25T14:07:20.940Z,77.12
2022-07-25T14:10:11.907Z,77.42
2022-07-25T14:11:15.825Z,77.95
2022-07-25T14:12:12.746Z,78.28
2022-07-25T14:13:13.879Z,78.87
2022-07-25T14:14:12.813Z,79.53
2022-07-25T14:15:12.746Z,80.82
2022-07-25T14:16:15.409Z,80.46
2022-07-25T14:17:25.792Z,80.27
2022-07-25T14:18:33.679Z,80.17
2022-07-25T14:19:13.439Z,80.27
2022-07-25T14:20:12.723Z,80.66
2022-07-25T14:21:37.824Z,81.02
2022-07-25T14:22:14.671Z,80.58
2022-07-25T14:23:12.596Z,79.69
2022-07-25T14:24:12.612Z,79.26
2022-07-25T14:25:12.627Z,79.46
2022-07-25T14:26:12.554Z,79.56
2022-07-25T14:27:12.805Z,79.82
2022-07-25T14:28:12.781Z,78.05
2022-07-25T14:29:12.658Z,77.36
2022-07-25T14:30:12.510Z,77.55
2022-07-25T14:31:12.637Z,77.49
2022-07-25T14:32:14.142Z,77.29
2022-07-25T14:33:12.494Z,77.59
2022-07-25T14:34:12.502Z,77.89
2022-07-25T14:35:11.438Z,77.33
2022-07-25T14:36:12.466Z,76.54
2022-07-25T14:37:12.434Z,76.87
2022-07-25T14:38:12.473Z,77.17
2022-07-25T14:39:12.397Z,77.27
2022-07-25T14:40:12.389Z,76.87
2022-07-25T14:41:13.380Z,76.28
2022-07-25T14:42:12.497Z,76.28
2022-07-25T14:43:12.360Z,76.68
2022-07-25T14:44:33.328Z,77.47
2022-07-25T14:49:02.713Z,78.78
2022-07-25T14:50:04.701Z,78.49
2022-07-25T14:51:03.867Z,78.63
2022-07-25T14:52:03.585Z,79.26
2022-07-25T14:53:03.624Z,80.34
2022-07-25T14:55:04.586Z,80.64
2022-07-25T14:55:11.609Z,80.74
2022-07-25T14:56:09.694Z,80.54
2022-07-25T14:59:38.546Z,81.43
2022-07-25T15:00:39.556Z,81.07
2022-07-25T15:01:39.512Z,81.76
2022-07-25T15:02:40.581Z,81.81
2022-07-25T15:03:39.493Z,82.16
2022-07-25T15:04:39.547Z,81.86
2022-07-25T15:05:39.495Z,82.35
2022-07-25T15:06:41.706Z,82.56
2022-07-25T15:07:39.467Z,82.22
2022-07-25T15:08:39.463Z,81.43
2022-07-25T15:09:39.408Z,81.73
2022-07-25T15:10:39.402Z,82.26
2022-07-25T15:11:39.486Z,82.56
2022-07-25T15:12:39.385Z,82.75
2022-07-25T15:13:39.365Z,82.99
2022-07-25T15:14:39.373Z,83.13
2022-07-25T15:15:39.482Z,83.66
2022-07-25T15:16:39.868Z,84.45
2022-07-25T15:17:39.531Z,85.09
2022-07-25T15:19:05.369Z,85.42
2022-07-25T15:19:39.297Z,85.57
2022-07-25T15:20:39.318Z,86.06
2022-07-25T15:22:00.553Z,86.26
2022-07-25T15:22:41.526Z,86.32
2022-07-25T15:23:39.258Z,85.33
2022-07-25T15:25:06.757Z,85.42
2022-07-25T15:26:39.236Z,85.92
2022-07-25T15:27:39.179Z,85.23
2022-07-25T15:28:39.195Z,84.74
2022-07-25T15:29:39.162Z,85.23
2022-07-25T15:30:39.185Z,85.42
2022-07-25T15:31:38.282Z,85.33
2022-07-25T15:32:39.287Z,85.23
2022-07-25T15:33:40.392Z,85.37
2022-07-25T15:34:39.106Z,85.77
2022-07-25T15:35:39.081Z,86.00
2022-07-25T15:36:39.059Z,86.20
2022-07-25T15:37:39.190Z,87.10
2022-07-25T15:38:39.086Z,86.60
2022-07-25T15:39:39.126Z,85.80
2022-07-25T15:40:39.023Z,85.61
2022-07-25T15:41:39.056Z,85.94
2022-07-25T15:42:39.001Z,86.24
2022-07-25T15:43:38.963Z,86.34
2022-07-25T15:44:38.966Z,86.54
2022-07-25T15:45:38.936Z,86.70
2022-07-25T15:46:39.017Z,86.50
2022-07-25T15:47:38.920Z,86.60
2022-07-25T15:48:39.011Z,86.64
2022-07-25T15:49:38.955Z,86.94
2022-07-25T15:50:38.971Z,87.13
2022-07-25T15:51:39.042Z,87.48
2022-07-25T15:52:38.854Z,87.87
2022-07-25T15:53:38.901Z,88.01
2022-07-25T15:54:38.873Z,88.41
2022-07-25T15:55:38.895Z,88.81
2022-07-25T15:56:38.919Z,88.81
2022-07-25T15:57:38.793Z,89.05
2022-07-25T15:58:38.799Z,89.54
2022-07-25T15:59:38.774Z,89.54
2022-07-25T16:01:23.558Z,89.45
2022-07-25T16:01:41.255Z,89.54
2022-07-25T16:02:38.722Z,89.11
2022-07-25T16:03:38.777Z,88.81